French Village, Canada
Current Conditions -  °F | °C
As of 10:00 AM on Sunday 25 Jan 2015 (Local Time) from CYHZ Reporting Station
Broken Clouds Broken Clouds  
Wind Chill: 20°   Ceiling: 1800
Heat Index: 32°   Visibility: 15mi
Dew Point: 27°   Wind: 21mph
Humidity: 80%   Direction: 260°W
Pressure: 29.2"   Gusts: 31mph
Location:  44.7°N, 63.88°W
Report Text: CYHZ 251400Z 26018G27KT 15SM BKN018 BKN250 00/M03 A2920 RMK SC6CI1 SLP891
Loading
Personal Weather Stations






























Interactive Weather Map New forecast layout! Learn more

10-Day Weather Forecast

Advertisements
Track Severe Weather on mobile